Fraiburgo, Brazil
Current Conditions -  °F | °C
As of 7:00 AM on Monday 20 Oct 2014 (Local Time) from SBCH Reporting Station
Scattered Clouds Scattered Clouds  
Wind Chill: 63°   Ceiling: Unl
Heat Index: 63°   Visibility: 6mi
Dew Point: 57°   Wind: 9mph
Humidity: 82%   Direction: 130°SE
Pressure: 30.06"   Gusts: NA
Location:  27.03°S, 50.92°W
Report Text: SBCH 201000Z 13008KT 9000 SCT006 17/14 Q1018
Loading
Personal Weather Stations






























Interactive Weather Map
Tropical Storm Tracking
New forecast layout! Learn more

10-Day Weather Forecast

Advertisements
Track Severe Weather on mobile